El Paso, TX (88562)

9:00 AM MST on February 01, 2015 (GMT -0700)
Shock | Change Station
CLOSE
Current Station
Personal Weather Station
Location: El Paso, TX
Elevation: 3924 ft
Nearby Weather Stations

Elev 3924 ft 31.76 °N, 106.33 °W | Updated 9 minutes ago

Partly Cloudy
Partly Cloudy
49.5 °F
Feels Like 49 °F
N
3.7
Wind Variable Wind from ENE

Today
High -- | Low -- °F
--% Chance of Precip.
Yesterday
High -- | Low -- °F
Precip. -- in
6:58 AM 5:39 PM
Waxing Gibbous, 95% visible
Pressure 29.99 in
Visibility 10.0 miles
Clouds Scattered Clouds 4500 ft
Scattered Clouds 7000 ft
Mostly Cloudy 15000 ft
Windchill 49 °F
Dew Point 44 °F
Humidity 81%
Rainfall 0.00 in
Snow Depth Not available.
UV 1 out of 12
Pollen .20 out of 12
Air Quality Not available.
Flu Activity Not available.
METAR KELP 011551Z 03007KT 10SM SCT045 SCT070 BKN150 08/06 A3008 RMK AO2 SLP154 T00830056

More Conditions Fewer Conditions

Pressure 29.99 in
Visibility 10.0 miles
Clouds Scattered Clouds 4500 ft
Scattered Clouds 7000 ft
Mostly Cloudy 15000 ft
Windchill 49 °F
Dew Point 44 °F
Humidity 81%
Rainfall 0.00 in
Snow Depth Not available.
UV 1 out of 12
Pollen .20 out of 12
Air Quality Not available.
Flu Activity Not available.
METAR KELP 011551Z 03007KT 10SM SCT045 SCT070 BKN150 08/06 A3008 RMK AO2 SLP154 T00830056

More Conditions Fewer Conditions

Nowcast | as of 7:31 am MST on February 1, 2015

Surface observations and satellite imagery are indicating some patchy fog around The Lowlands. A few areas could be dense...at one-quarter mile or less. Many of the highways across this area may be impacted...including I-10 from Las Cruces to the Arizona border...I-25 from Las Cruces to Hatch...US 180 northwest out of Silver City...Hwy 9 from Columbus west and US 54 from Alamogordo south. Motorists are urged to use caution this morning while fog is around. The fog should dissipate by around 10 am.

×

10-Day Weather Forecast

Almanac

Astronomy

Feb. 01, 2015 Rise Set
Actual Time
Civil Twilight
Nautical Twilight
Astronomical Twilight
Moon
Length of Visible Light
Length of Day
Tomorrow will be .
, % of the Moon is Illuminated

Today's Extremes

State Highs State Lows

Community

WunderPhotos

Upload Photos

1,792,362 photos uploaded!

WunderBlogs® & News

Nearby

Air Quality

  Air Quality AQ Index Pollutant
Not available.

Snow Depth

Station Depth Elevation

Earthquake Activity

City Distance Mag. Time & Date
Minimum magnitude displayed is 2.5.

Coastal Water Temperatures

Place Temperature

Nearby Weather Stations